createdAt,value
2023-11-27T00:00:29.300Z,36.594177
2023-11-27T00:05:19.155Z,36.497515
2023-11-27T00:11:02.600Z,36.400853
2023-11-27T00:15:19.150Z,36.736045
2023-11-27T00:20:19.186Z,36.639233
2023-11-27T00:26:02.595Z,36.639233
2023-11-27T00:30:19.189Z,36.639233
2023-11-27T00:35:17.255Z,36.639233
2023-11-27T00:40:19.216Z,37.067366
2023-11-27T00:45:19.200Z,37.067366
2023-11-27T00:50:19.239Z,37.067366
2023-11-27T00:55:17.381Z,37.164326
2023-11-27T01:00:17.409Z,37.164326
2023-11-27T01:05:19.256Z,37.492017
2023-11-27T01:10:19.199Z,37.589123
2023-11-27T01:15:19.193Z,37.686229
2023-11-27T01:20:17.415Z,37.783334
2023-11-27T01:25:17.457Z,37.783334
2023-11-27T01:30:17.397Z,37.880439
2023-11-27T01:35:17.388Z,38.205023
2023-11-27T01:40:19.214Z,38.302272
2023-11-27T01:45:19.263Z,38.399521
2023-11-27T01:51:02.691Z,38.399521
2023-11-27T01:56:00.708Z,38.594017
2023-11-27T02:01:00.809Z,38.594017
2023-11-27T02:06:00.732Z,38.594017
2023-11-27T02:11:00.692Z,38.788510
2023-11-27T02:15:17.199Z,38.788510
2023-11-27T02:21:00.716Z,39.110352
2023-11-27T02:25:17.346Z,39.207742
2023-11-27T02:31:00.860Z,39.305131
2023-11-27T02:36:00.719Z,39.402520
2023-11-27T02:41:00.735Z,39.402520
2023-11-27T02:46:00.757Z,39.499908
2023-11-27T02:51:00.732Z,39.597296
2023-11-27T02:55:17.297Z,39.597296
2023-11-27T03:00:17.324Z,39.792069
2023-11-27T03:05:17.252Z,40.111380
2023-11-27T03:10:15.520Z,39.889455
2023-11-27T03:16:00.785Z,40.306436
2023-11-27T03:20:17.244Z,40.306436
2023-11-27T03:26:00.761Z,40.306436
2023-11-27T03:30:17.250Z,40.622572
2023-11-27T03:35:15.528Z,40.622572
2023-11-27T03:41:01.226Z,40.935325
2023-11-27T03:46:00.955Z,41.244773
2023-11-27T03:50:17.265Z,41.244773
2023-11-27T03:55:15.577Z,41.244773
2023-11-27T04:01:00.873Z,41.550991
2023-11-27T04:06:00.758Z,41.550991
2023-11-27T04:10:17.785Z,41.952269
2023-11-27T04:15:17.305Z,42.050490
2023-11-27T04:20:17.274Z,42.148710
2023-11-27T04:25:15.522Z,42.547435
2023-11-27T04:31:00.818Z,43.041887
2023-11-27T04:35:17.357Z,43.140374
2023-11-27T04:41:00.867Z,43.533902
2023-11-27T04:45:17.288Z,43.632521
2023-11-27T04:50:17.316Z,44.122287
2023-11-27T04:55:17.381Z,44.122287
2023-11-27T05:00:16.935Z,44.319784
2023-11-27T05:05:16.783Z,44.708603
2023-11-27T05:10:16.842Z,44.906360
2023-11-27T05:15:18.632Z,45.005237
2023-11-27T05:21:02.060Z,45.391907
2023-11-27T05:26:02.102Z,45.490914
2023-11-27T05:30:24.821Z,45.589920
2023-11-27T05:35:18.638Z,45.787932
2023-11-27T05:40:16.956Z,45.787932
2023-11-27T05:45:16.826Z,45.985943
2023-11-27T05:51:02.108Z,46.084948
2023-11-27T05:56:02.109Z,46.282958
2023-11-27T06:00:17.326Z,46.668294
2023-11-27T06:06:01.998Z,46.767427
2023-11-27T06:10:18.604Z,46.965691
2023-11-27T06:15:18.625Z,47.064823
2023-11-27T06:20:18.550Z,47.163955
2023-11-27T06:25:16.808Z,47.362218
2023-11-27T06:30:16.795Z,47.560480
2023-11-27T06:36:02.080Z,47.560480
2023-11-27T06:40:18.627Z,47.371996
2023-11-27T06:45:18.699Z,47.371996
2023-11-27T06:50:16.793Z,47.371996
2023-11-27T06:55:18.695Z,47.371996
2023-11-27T07:00:18.606Z,47.371996
2023-11-27T07:05:18.584Z,47.371996
2023-11-27T07:10:18.715Z,47.470998
2023-11-27T07:15:16.813Z,47.758742
2023-11-27T07:20:16.800Z,47.857872
2023-11-27T07:25:18.739Z,47.957002
2023-11-27T07:30:16.817Z,48.056132
2023-11-27T07:36:02.108Z,48.155262
2023-11-27T07:41:02.087Z,48.254392
2023-11-27T07:45:24.878Z,48.254392
2023-11-27T07:50:18.674Z,48.353521
2023-11-27T07:55:24.895Z,48.551780
2023-11-27T08:00:18.663Z,48.837834
2023-11-27T08:05:17.179Z,49.036347
2023-11-27T08:10:18.715Z,49.334115
2023-11-27T08:15:16.875Z,49.816903
2023-11-27T08:20:18.676Z,50.015668
2023-11-27T08:25:18.858Z,50.313813
2023-11-27T08:30:18.832Z,50.611957
2023-11-27T08:35:18.647Z,50.525173
2023-11-27T08:40:18.742Z,50.624427
2023-11-27T08:46:02.192Z,51.108860
2023-11-27T08:51:02.111Z,51.307621
2023-11-27T08:55:24.900Z,51.506381
2023-11-27T09:01:02.309Z,51.804520
2023-11-27T09:05:18.662Z,52.102658
2023-11-27T09:10:18.739Z,52.301416
2023-11-27T09:15:16.699Z,52.599551
2023-11-27T09:20:18.704Z,52.897686
2023-11-27T09:25:16.913Z,53.096441
2023-11-27T09:31:02.350Z,53.295196
2023-11-27T09:35:18.748Z,53.394574
2023-11-27T09:40:17.211Z,53.304215
2023-11-27T09:45:18.780Z,53.403464
2023-11-27T09:50:19.194Z,53.403464
2023-11-27T09:55:16.936Z,53.403464
2023-11-27T10:00:18.737Z,53.502713
2023-11-27T10:06:02.175Z,53.502713
2023-11-27T10:10:16.938Z,53.111507
2023-11-27T10:15:18.735Z,51.323829
2023-11-27T10:21:02.183Z,50.230548
2023-11-27T10:25:16.937Z,49.943476
2023-11-27T10:30:18.749Z,49.549079
2023-11-27T10:36:02.191Z,49.253277
2023-11-27T10:40:24.998Z,48.858871
2023-11-27T10:45:18.810Z,48.162761
2023-11-27T10:50:24.950Z,47.366355
2023-11-27T10:55:25.034Z,46.973007
2023-11-27T11:00:18.700Z,47.079576
2023-11-27T11:05:18.711Z,46.882629
2023-11-27T11:10:18.762Z,47.083981
2023-11-27T11:15:19.565Z,46.886765
2023-11-27T11:20:18.734Z,46.689548
2023-11-27T11:25:18.877Z,46.590939
2023-11-27T11:30:18.750Z,46.492329
2023-11-27T11:36:02.227Z,46.295110
2023-11-27T11:41:02.211Z,45.999278
2023-11-27T11:46:02.236Z,45.802055
2023-11-27T11:50:16.930Z,45.307002
2023-11-27T11:55:16.792Z,44.612794
2023-11-27T12:00:16.957Z,44.416101
2023-11-27T12:05:18.883Z,44.121057
2023-11-27T12:11:02.688Z,43.924359
2023-11-27T12:15:16.726Z,44.223708
2023-11-27T12:21:02.194Z,43.530960
2023-11-27T12:25:16.991Z,43.432609
2023-11-27T12:30:18.762Z,43.334258
2023-11-27T12:35:18.823Z,43.137554
2023-11-27T12:40:19.082Z,42.639804
2023-11-27T12:45:17.000Z,42.842496
2023-11-27T12:50:18.866Z,42.744143
2023-11-27T12:56:02.373Z,42.645789
2023-11-27T13:00:18.802Z,42.645789
2023-11-27T13:05:18.802Z,42.645789
2023-11-27T13:11:02.303Z,42.148710
2023-11-27T13:16:02.424Z,42.547435
2023-11-27T13:20:25.003Z,42.246929
2023-11-27T13:26:02.248Z,42.246929
2023-11-27T13:30:18.789Z,42.345149
2023-11-27T13:35:18.766Z,42.443368
2023-11-27T13:41:02.230Z,42.139494
2023-11-27T13:45:18.792Z,42.237576
2023-11-27T13:50:17.017Z,42.028342
2023-11-27T13:55:16.851Z,42.126286
2023-11-27T14:00:18.886Z,42.322172
2023-11-27T14:05:18.951Z,42.109001
2023-11-27T14:10:18.855Z,42.087551
2023-11-27T14:15:18.842Z,41.964329
2023-11-27T14:20:18.841Z,41.837048
2023-11-27T14:25:18.892Z,42.031795
2023-11-27T14:30:18.814Z,41.667019
2023-11-27T14:35:16.986Z,41.764098
2023-11-27T14:40:19.039Z,42.055331
2023-11-27T14:45:18.837Z,42.152408
2023-11-27T14:50:21.408Z,42.108414
2023-11-27T14:55:18.884Z,42.059660
2023-11-27T15:00:18.907Z,41.812792
2023-11-27T15:06:02.368Z,42.006032
2023-11-27T15:11:02.275Z,41.947416
2023-11-27T15:15:16.864Z,41.430135
2023-11-27T15:20:17.080Z,41.718581
2023-11-27T15:26:02.400Z,41.452442
2023-11-27T15:30:19.046Z,41.373105
2023-11-27T15:35:18.866Z,41.836384
2023-11-27T15:40:26.860Z,41.288132
2023-11-27T15:45:18.863Z,41.101886
2023-11-27T15:50:17.046Z,41.292865
2023-11-27T15:55:17.131Z,40.712453
2023-11-27T16:00:18.905Z,40.014974
2023-11-27T16:06:02.394Z,40.807603
2023-11-27T16:10:18.835Z,40.603931
2023-11-27T16:15:18.880Z,40.698906
2023-11-27T16:21:02.313Z,40.698906
2023-11-27T16:26:02.374Z,40.488981
2023-11-27T16:30:16.844Z,40.583779
2023-11-27T16:35:18.912Z,40.272803
2023-11-27T16:40:19.100Z,40.462041
2023-11-27T16:46:02.382Z,40.556659
2023-11-27T16:50:18.850Z,39.396750
2023-11-27T16:56:02.407Z,39.154033
2023-11-27T17:00:18.834Z,39.247916
2023-11-27T17:06:02.422Z,39.435679
2023-11-27T17:10:18.963Z,39.435679
2023-11-27T17:15:25.140Z,39.529558
2023-11-27T17:20:18.911Z,39.623436
2023-11-27T17:25:25.268Z,39.811189
2023-11-27T17:30:18.874Z,39.091452
2023-11-27T17:35:16.876Z,38.904070
2023-11-27T17:40:25.256Z,38.872375
2023-11-27T17:46:02.570Z,38.684597
2023-11-27T17:50:18.942Z,38.496814
2023-11-27T17:55:18.985Z,38.402920
2023-11-27T18:01:02.445Z,38.738212
2023-11-27T18:05:17.114Z,38.738212
2023-11-27T18:11:02.410Z,38.455962
2023-11-27T18:15:18.946Z,37.463912
2023-11-27T18:21:02.407Z,37.420949
2023-11-27T18:25:17.158Z,36.806529
2023-11-27T18:30:18.946Z,36.950438
2023-11-27T18:35:18.908Z,37.181307
2023-11-27T18:40:19.684Z,36.992724
2023-11-27T18:45:18.933Z,36.479896
2023-11-27T18:50:18.940Z,36.709840
2023-11-27T18:56:02.407Z,36.838567
2023-11-27T19:00:18.946Z,37.055052
2023-11-27T19:05:18.949Z,37.055052
2023-11-27T19:11:02.400Z,37.149710
2023-11-27T19:16:02.438Z,37.339025
2023-11-27T19:20:17.239Z,37.216476
2023-11-27T19:25:17.182Z,36.804136
2023-11-27T19:30:25.183Z,36.385784
2023-11-27T19:35:18.959Z,36.385784
2023-11-27T19:41:02.390Z,35.624011
2023-11-27T19:45:18.927Z,35.186249
2023-11-27T19:50:18.971Z,35.092699
2023-11-27T19:55:17.180Z,34.999148
2023-11-27T20:00:19.016Z,34.010492
2023-11-27T20:06:02.471Z,33.917327
2023-11-27T20:10:17.218Z,34.274850
2023-11-27T20:15:18.966Z,33.180226
2023-11-27T20:20:18.992Z,32.901303
2023-11-27T20:25:17.171Z,32.715346
2023-11-27T20:30:56.247Z,32.436399
2023-11-27T20:35:18.988Z,32.157440
2023-11-27T20:40:19.025Z,31.878466
2023-11-27T20:46:02.474Z,31.692477
2023-11-27T20:50:18.978Z,31.506481
2023-11-27T20:56:02.533Z,31.320479
2023-11-27T21:00:25.227Z,32.033719
2023-11-27T21:05:18.992Z,32.472741
2023-11-27T21:10:18.998Z,32.285560
2023-11-27T21:15:18.984Z,32.623665
2023-11-27T21:20:19.001Z,32.954863
2023-11-27T21:25:17.214Z,33.185215
2023-11-27T21:31:02.686Z,32.672948
2023-11-27T21:36:02.526Z,33.091059
2023-11-27T21:40:17.269Z,32.996901
2023-11-27T21:45:17.216Z,32.578974
2023-11-27T21:50:18.992Z,32.578974
2023-11-27T21:55:17.291Z,32.578974
2023-11-27T22:01:15.347Z,32.484998
2023-11-27T22:05:17.305Z,32.060948
2023-11-27T22:10:17.059Z,32.060948
2023-11-27T22:15:19.073Z,32.484998
2023-11-27T22:20:18.983Z,31.967157
2023-11-27T22:25:17.188Z,31.967157
2023-11-27T22:30:19.042Z,31.967157
2023-11-27T22:36:02.478Z,31.873364
2023-11-27T22:41:02.517Z,31.443176
2023-11-27T22:46:02.483Z,31.349571
2023-11-27T22:51:02.469Z,31.349571
2023-11-27T22:55:25.280Z,30.912848
2023-11-27T23:00:19.062Z,31.255965
2023-11-27T23:06:02.512Z,31.685776
2023-11-27T23:10:56.308Z,31.685776
2023-11-27T23:15:19.100Z,31.498182
2023-11-27T23:21:02.587Z,31.827133
2023-11-27T23:26:02.586Z,31.639160
2023-11-27T23:30:19.046Z,31.639160
2023-11-27T23:35:56.306Z,31.451181
2023-11-27T23:40:19.093Z,31.357190
2023-11-27T23:45:19.166Z,30.841561
2023-11-27T23:50:17.065Z,30.653943
2023-11-27T23:55:17.245Z,30.038956
